createdAt,value
2023-12-04T00:00:13.286Z,553.00
2023-12-04T00:01:13.675Z,555.00
2023-12-04T00:02:13.263Z,553.00
2023-12-04T00:03:13.298Z,550.00
2023-12-04T00:04:13.355Z,551.00
2023-12-04T00:05:13.308Z,551.00
2023-12-04T00:57:40.015Z,546.00
2023-12-04T00:58:12.860Z,548.00
2023-12-04T00:59:12.791Z,548.00
2023-12-04T01:00:12.750Z,549.00
2023-12-04T01:01:12.738Z,547.00
2023-12-04T01:02:12.724Z,547.00
2023-12-04T01:03:12.737Z,550.00
2023-12-04T01:04:12.712Z,550.00
2023-12-04T01:05:12.699Z,550.00
2023-12-04T01:06:12.698Z,548.00
2023-12-04T01:07:12.696Z,547.00
2023-12-04T01:08:12.683Z,548.00
2023-12-04T01:09:12.673Z,547.00
2023-12-04T01:10:12.649Z,552.00
2023-12-04T01:11:12.645Z,555.00
2023-12-04T01:12:12.638Z,558.00
2023-12-04T01:13:12.657Z,557.00
2023-12-04T01:14:12.616Z,553.00
2023-12-04T01:15:12.600Z,553.00
2023-12-04T01:16:12.591Z,554.00
2023-12-04T01:17:12.582Z,556.00
2023-12-04T01:18:12.708Z,557.00
2023-12-04T01:19:12.636Z,555.00
2023-12-04T01:20:12.579Z,549.00
2023-12-04T01:21:12.553Z,550.00
2023-12-04T01:22:12.539Z,547.00
2023-12-04T01:23:12.526Z,544.00
2023-12-04T01:24:12.564Z,544.00
2023-12-04T01:25:12.520Z,545.00
2023-12-04T01:26:12.510Z,543.00
2023-12-04T01:27:12.500Z,546.00
2023-12-04T01:28:12.488Z,546.00
2023-12-04T01:29:12.545Z,542.00
2023-12-04T01:30:12.499Z,543.00
2023-12-04T01:31:12.492Z,546.00
2023-12-04T01:32:12.488Z,549.00
2023-12-04T01:33:12.555Z,545.00
2023-12-04T01:34:12.519Z,547.00
2023-12-04T01:35:12.492Z,546.00
2023-12-04T01:36:12.501Z,546.00
2023-12-04T01:37:12.564Z,548.00
2023-12-04T01:38:12.559Z,555.00
2023-12-04T01:39:12.556Z,552.00
2023-12-04T01:40:12.605Z,552.00
2023-12-04T01:41:12.564Z,551.00
2023-12-04T01:42:12.550Z,551.00
2023-12-04T01:43:12.577Z,550.00
2023-12-04T01:44:12.553Z,545.00
2023-12-04T01:45:12.588Z,546.00
2023-12-04T01:46:12.553Z,541.00
2023-12-04T01:47:12.549Z,541.00
2023-12-04T01:48:12.646Z,542.00
2023-12-04T01:49:12.679Z,542.00
2023-12-04T01:50:12.550Z,542.00
2023-12-04T01:51:12.552Z,541.00
2023-12-04T01:52:12.605Z,544.00
2023-12-04T01:53:12.558Z,546.00
2023-12-04T01:54:12.564Z,546.00
2023-12-04T01:55:12.547Z,545.00
2023-12-04T01:56:12.558Z,545.00
2023-12-04T01:57:12.545Z,545.00
2023-12-04T01:58:12.553Z,540.00
2023-12-04T01:59:12.578Z,542.00
2023-12-04T02:00:12.701Z,542.00
2023-12-04T02:01:12.518Z,544.00
2023-12-04T02:02:12.489Z,542.00
2023-12-04T02:03:12.554Z,542.00
2023-12-04T02:04:12.564Z,542.00
2023-12-04T02:05:12.499Z,541.00
2023-12-04T02:06:12.500Z,542.00
2023-12-04T02:07:12.176Z,541.00
2023-12-04T02:08:12.122Z,542.00
2023-12-04T02:09:12.115Z,541.00
2023-12-04T02:10:12.154Z,542.00
2023-12-04T02:11:12.085Z,540.00
2023-12-04T02:12:12.085Z,544.00
2023-12-04T02:13:12.084Z,542.00
2023-12-04T02:14:12.064Z,540.00
2023-12-04T02:15:12.048Z,541.00
2023-12-04T02:16:12.043Z,542.00
2023-12-04T02:17:12.063Z,543.00
2023-12-04T02:18:12.097Z,545.00
2023-12-04T02:19:12.088Z,544.00
2023-12-04T02:20:12.013Z,544.00
2023-12-04T02:21:11.997Z,543.00
2023-12-04T02:22:11.984Z,545.00
2023-12-04T02:23:11.981Z,545.00
2023-12-04T02:24:11.970Z,544.00
2023-12-04T02:25:21.543Z,541.00
2023-12-04T02:26:11.963Z,541.00
2023-12-04T02:27:11.943Z,540.00
2023-12-04T02:28:11.966Z,541.00
2023-12-04T02:29:11.959Z,541.00
2023-12-04T02:30:11.914Z,540.00
2023-12-04T02:31:11.932Z,539.00
2023-12-04T02:32:11.891Z,537.00
2023-12-04T02:33:11.970Z,537.00
2023-12-04T02:34:12.801Z,537.00
2023-12-04T02:35:11.875Z,538.00
2023-12-04T02:36:11.868Z,538.00
2023-12-04T02:37:11.924Z,537.00
2023-12-04T02:38:11.846Z,540.00
2023-12-04T02:39:11.831Z,537.00
2023-12-04T02:40:11.877Z,539.00
2023-12-04T02:41:11.811Z,540.00
2023-12-04T02:42:11.816Z,540.00
2023-12-04T02:43:11.824Z,540.00
2023-12-04T02:44:11.786Z,538.00
2023-12-04T02:45:11.783Z,539.00
2023-12-04T02:46:11.791Z,540.00
2023-12-04T02:47:11.754Z,541.00
2023-12-04T02:48:11.913Z,543.00
2023-12-04T02:49:11.785Z,542.00
2023-12-04T02:50:11.730Z,543.00
2023-12-04T02:51:11.729Z,545.00
2023-12-04T02:52:11.739Z,544.00
2023-12-04T02:53:11.698Z,543.00
2023-12-04T02:54:11.692Z,540.00
2023-12-04T02:55:11.733Z,540.00
2023-12-04T02:56:11.677Z,537.00
2023-12-04T02:57:11.700Z,534.00
2023-12-04T02:58:11.736Z,533.00
2023-12-04T02:59:11.654Z,532.00
2023-12-04T03:00:11.639Z,532.00
2023-12-04T03:01:11.659Z,534.00
2023-12-04T03:02:11.638Z,535.00
2023-12-04T03:03:11.638Z,534.00
2023-12-04T03:04:11.623Z,535.00
2023-12-04T03:05:11.621Z,540.00
2023-12-04T03:06:11.607Z,538.00
2023-12-04T03:07:11.609Z,537.00
2023-12-04T03:08:11.565Z,536.00
2023-12-04T03:09:11.569Z,539.00
2023-12-04T03:10:11.563Z,541.00
2023-12-04T03:11:11.533Z,539.00
2023-12-04T03:12:11.525Z,538.00
2023-12-04T03:13:11.574Z,536.00
2023-12-04T03:14:11.503Z,534.00
2023-12-04T03:15:11.499Z,535.00
2023-12-04T03:16:11.489Z,535.00
2023-12-04T03:17:11.477Z,534.00
2023-12-04T03:18:12.903Z,536.00
2023-12-04T03:19:11.526Z,534.00
2023-12-04T03:20:11.456Z,532.00
2023-12-04T03:21:11.471Z,533.00
2023-12-04T03:22:11.504Z,531.00
2023-12-04T03:23:11.418Z,531.00
2023-12-04T03:24:11.410Z,533.00
2023-12-04T03:25:11.555Z,535.00
2023-12-04T03:26:11.492Z,535.00
2023-12-04T03:27:11.405Z,537.00
2023-12-04T03:28:11.476Z,536.00
2023-12-04T03:29:11.360Z,535.00
2023-12-04T03:30:11.367Z,535.00
2023-12-04T03:31:11.444Z,535.00
2023-12-04T03:32:11.347Z,537.00
2023-12-04T03:33:11.396Z,538.00
2023-12-04T03:34:11.365Z,540.00
2023-12-04T03:35:11.315Z,540.00
2023-12-04T03:36:11.308Z,539.00
2023-12-04T03:37:11.352Z,539.00
2023-12-04T03:38:11.280Z,540.00
2023-12-04T03:39:11.291Z,538.00
2023-12-04T03:40:11.309Z,536.00
2023-12-04T03:41:11.255Z,536.00
2023-12-04T03:42:11.249Z,537.00
2023-12-04T03:43:11.320Z,537.00
2023-12-04T03:44:11.267Z,538.00
2023-12-04T03:45:11.222Z,535.00
2023-12-04T03:46:11.224Z,534.00
2023-12-04T03:47:11.203Z,535.00
2023-12-04T03:48:11.252Z,535.00
2023-12-04T03:49:11.226Z,535.00
2023-12-04T03:50:11.182Z,536.00
2023-12-04T03:51:11.164Z,533.00
2023-12-04T03:52:11.186Z,534.00
2023-12-04T03:53:11.163Z,535.00
2023-12-04T03:54:11.135Z,536.00
2023-12-04T03:55:11.199Z,537.00
2023-12-04T03:56:11.118Z,539.00
2023-12-04T03:57:11.110Z,537.00
2023-12-04T03:58:11.215Z,539.00
2023-12-04T03:59:11.089Z,539.00
2023-12-04T04:00:11.075Z,539.00
2023-12-04T04:01:11.091Z,540.00
2023-12-04T04:02:11.058Z,541.00
2023-12-04T04:03:11.117Z,543.00
2023-12-04T04:04:11.081Z,543.00
2023-12-04T04:05:11.030Z,542.00
2023-12-04T04:06:11.022Z,548.00
2023-12-04T04:07:11.109Z,547.00
2023-12-04T04:08:10.996Z,547.00
2023-12-04T04:09:11.066Z,546.00
2023-12-04T04:10:11.008Z,547.00
2023-12-04T04:11:10.975Z,547.00
2023-12-04T04:12:10.970Z,553.00
2023-12-04T04:13:11.050Z,554.00
2023-12-04T04:14:10.945Z,552.00
2023-12-04T04:15:10.935Z,551.00
2023-12-04T04:16:10.985Z,546.00
2023-12-04T04:17:10.923Z,544.00
2023-12-04T04:18:11.031Z,543.00
2023-12-04T04:19:12.727Z,543.00
2023-12-04T04:20:10.905Z,541.00
2023-12-04T04:21:10.878Z,542.00
2023-12-04T04:22:10.961Z,542.00
2023-12-04T04:23:10.865Z,542.00
2023-12-04T04:24:10.870Z,542.00
2023-12-04T04:25:10.914Z,540.00
2023-12-04T04:26:10.847Z,540.00
2023-12-04T04:27:10.860Z,540.00
2023-12-04T04:28:10.868Z,538.00
2023-12-04T04:29:10.813Z,538.00
2023-12-04T04:30:10.793Z,534.00
2023-12-04T04:31:10.831Z,536.00
2023-12-04T04:32:12.985Z,536.00
2023-12-04T04:33:10.784Z,536.00
2023-12-04T04:34:10.839Z,537.00
2023-12-04T04:35:10.825Z,534.00
2023-12-04T04:36:10.751Z,534.00
2023-12-04T04:37:10.795Z,536.00
2023-12-04T04:38:10.723Z,534.00
2023-12-04T04:39:10.711Z,538.00
2023-12-04T04:40:10.754Z,535.00
2023-12-04T04:41:10.741Z,533.00
2023-12-04T04:42:10.751Z,535.00
2023-12-04T04:43:10.730Z,539.00
2023-12-04T04:44:10.664Z,539.00
2023-12-04T04:45:10.659Z,539.00
2023-12-04T04:46:10.718Z,540.00
2023-12-04T04:47:10.633Z,539.00
2023-12-04T04:48:10.662Z,539.00
2023-12-04T04:49:10.689Z,539.00
2023-12-04T04:50:10.606Z,539.00
2023-12-04T04:51:10.605Z,539.00
2023-12-04T04:52:10.631Z,540.00
2023-12-04T04:53:10.582Z,540.00
2023-12-04T04:54:10.568Z,539.00
2023-12-04T04:55:10.649Z,541.00
2023-12-04T04:56:10.561Z,541.00
2023-12-04T04:57:10.568Z,540.00
2023-12-04T04:58:10.597Z,538.00
2023-12-04T04:59:10.522Z,541.00
2023-12-04T05:00:10.514Z,539.00
2023-12-04T05:01:10.531Z,541.00
2023-12-04T05:02:10.524Z,543.00
2023-12-04T05:03:10.486Z,543.00
2023-12-04T05:04:10.557Z,541.00
2023-12-04T05:05:10.520Z,539.00
2023-12-04T05:06:10.500Z,538.00
2023-12-04T05:07:10.496Z,537.00
2023-12-04T05:08:10.436Z,538.00
2023-12-04T05:09:10.428Z,536.00
2023-12-04T05:10:10.474Z,536.00
2023-12-04T05:11:10.413Z,540.00
2023-12-04T05:12:10.400Z,538.00
2023-12-04T05:13:10.630Z,539.00
2023-12-04T05:14:10.385Z,540.00
2023-12-04T05:15:10.405Z,536.00
2023-12-04T05:16:10.494Z,536.00
2023-12-04T05:17:10.357Z,538.00
2023-12-04T05:18:10.394Z,538.00
2023-12-04T05:19:10.399Z,545.00
2023-12-04T05:20:10.328Z,541.00
2023-12-04T05:21:10.322Z,541.00
2023-12-04T05:22:10.363Z,540.00
2023-12-04T05:23:10.300Z,537.00
2023-12-04T05:24:10.288Z,537.00
2023-12-04T05:25:10.304Z,538.00
2023-12-04T05:26:10.316Z,538.00
2023-12-04T05:27:10.271Z,536.00
2023-12-04T05:28:10.295Z,538.00
2023-12-04T05:29:10.261Z,539.00
2023-12-04T05:30:10.229Z,542.00
2023-12-04T05:31:10.275Z,541.00
2023-12-04T05:32:10.218Z,542.00
2023-12-04T05:33:10.276Z,544.00
2023-12-04T05:34:10.301Z,540.00
2023-12-04T05:35:10.187Z,542.00
2023-12-04T05:36:10.181Z,543.00
2023-12-04T05:37:10.189Z,541.00
2023-12-04T05:38:10.158Z,540.00
2023-12-04T05:39:10.156Z,542.00
2023-12-04T05:40:10.233Z,543.00
2023-12-04T05:41:10.135Z,545.00
2023-12-04T05:42:10.116Z,547.00
2023-12-04T05:43:10.212Z,548.00
2023-12-04T05:44:10.100Z,547.00
2023-12-04T05:45:10.140Z,545.00
2023-12-04T05:46:10.124Z,543.00
2023-12-04T05:47:10.077Z,539.00
2023-12-04T05:48:10.108Z,533.00
2023-12-04T05:49:10.098Z,539.00
2023-12-04T05:50:10.048Z,542.00
2023-12-04T05:51:10.031Z,545.00
2023-12-04T05:52:10.100Z,532.00
2023-12-04T05:53:10.012Z,538.00
2023-12-04T05:54:10.014Z,545.00
2023-12-04T05:55:10.145Z,545.00
2023-12-04T05:56:09.996Z,543.00
2023-12-04T05:57:09.982Z,540.00
2023-12-04T05:58:10.025Z,538.00
2023-12-04T05:59:09.970Z,534.00
2023-12-04T06:00:09.957Z,537.00
2023-12-04T06:01:09.981Z,534.00
2023-12-04T06:02:10.020Z,534.00
2023-12-04T06:03:09.992Z,535.00
2023-12-04T06:04:09.946Z,534.00
2023-12-04T06:05:09.935Z,533.00
2023-12-04T06:06:09.933Z,536.00
2023-12-04T06:07:09.933Z,538.00
2023-12-04T06:08:09.885Z,538.00
2023-12-04T06:09:09.885Z,539.00
2023-12-04T06:10:09.949Z,538.00
2023-12-04T06:11:09.865Z,537.00
2023-12-04T06:12:09.846Z,536.00
2023-12-04T06:13:09.910Z,535.00
2023-12-04T06:14:09.843Z,535.00
2023-12-04T06:15:09.826Z,532.00
2023-12-04T06:16:09.870Z,532.00
2023-12-04T06:17:09.852Z,537.00
2023-12-04T06:18:09.901Z,540.00
2023-12-04T06:19:09.878Z,540.00
2023-12-04T06:20:09.784Z,539.00
2023-12-04T06:21:09.774Z,535.00
2023-12-04T06:22:09.774Z,536.00
2023-12-04T06:23:09.766Z,535.00
2023-12-04T06:24:09.826Z,535.00
2023-12-04T06:25:09.813Z,537.00
2023-12-04T06:26:09.728Z,535.00
2023-12-04T06:27:09.848Z,541.00
2023-12-04T06:28:09.735Z,537.00
2023-12-04T06:29:09.705Z,535.00
2023-12-04T06:30:09.688Z,534.00
2023-12-04T06:31:09.778Z,533.00
2023-12-04T06:32:09.678Z,531.00
2023-12-04T06:33:09.941Z,533.00
2023-12-04T06:34:09.712Z,537.00
2023-12-04T06:35:09.656Z,536.00
2023-12-04T06:36:09.649Z,540.00
2023-12-04T06:37:09.668Z,539.00
2023-12-04T06:38:09.666Z,539.00
2023-12-04T06:39:09.838Z,539.00
2023-12-04T06:40:09.690Z,539.00
2023-12-04T06:41:09.601Z,537.00
2023-12-04T06:42:09.606Z,535.00
2023-12-04T06:43:09.621Z,541.00
2023-12-04T06:44:09.584Z,541.00
2023-12-04T06:45:09.565Z,544.00
2023-12-04T06:46:09.896Z,543.00
2023-12-04T06:47:09.849Z,539.00
2023-12-04T06:48:09.579Z,544.00
2023-12-04T06:49:09.625Z,545.00
2023-12-04T06:50:09.509Z,545.00
2023-12-04T06:51:09.533Z,551.00
2023-12-04T06:52:09.874Z,554.00
2023-12-04T06:53:09.482Z,559.00
2023-12-04T06:54:09.897Z,560.00
2023-12-04T06:55:09.477Z,558.00
2023-12-04T06:56:09.466Z,564.00
2023-12-04T06:57:09.442Z,573.00
2023-12-04T06:58:09.463Z,579.00
2023-12-04T06:59:09.871Z,619.00
2023-12-04T07:00:20.921Z,626.00
2023-12-04T07:01:17.285Z,624.00
2023-12-04T07:02:09.473Z,612.00
2023-12-04T07:03:09.416Z,606.00
2023-12-04T07:04:10.012Z,595.00
2023-12-04T07:05:09.403Z,587.00
2023-12-04T07:06:09.393Z,590.00
2023-12-04T07:07:09.394Z,588.00
2023-12-04T07:08:09.371Z,590.00
2023-12-04T07:09:09.358Z,590.00
2023-12-04T07:10:09.361Z,586.00
2023-12-04T07:11:09.385Z,584.00
2023-12-04T07:12:09.357Z,585.00
2023-12-04T07:13:09.362Z,585.00
2023-12-04T07:14:09.291Z,585.00
2023-12-04T07:15:09.282Z,585.00
2023-12-04T07:16:09.374Z,584.00
2023-12-04T07:17:09.294Z,583.00
2023-12-04T07:18:09.510Z,583.00
2023-12-04T07:19:09.337Z,583.00
2023-12-04T07:20:09.300Z,583.00
2023-12-04T07:21:09.281Z,580.00
2023-12-04T07:22:09.421Z,582.00
2023-12-04T07:23:09.253Z,584.00
2023-12-04T07:24:09.240Z,584.00
2023-12-04T07:25:09.224Z,584.00
2023-12-04T07:26:09.224Z,583.00
2023-12-04T07:27:09.214Z,585.00
2023-12-04T07:28:09.427Z,581.00
2023-12-04T07:29:10.193Z,581.00
2023-12-04T07:30:09.185Z,581.00
2023-12-04T07:31:09.168Z,579.00
2023-12-04T07:32:09.134Z,577.00
2023-12-04T07:33:10.637Z,578.00
2023-12-04T07:34:09.450Z,577.00
2023-12-04T07:35:09.288Z,576.00
2023-12-04T07:36:09.273Z,579.00
2023-12-04T07:37:09.337Z,578.00
2023-12-04T07:38:09.264Z,577.00
2023-12-04T07:39:09.863Z,576.00
2023-12-04T07:40:09.285Z,574.00
2023-12-04T07:41:09.220Z,574.00
2023-12-04T07:42:12.919Z,575.00
2023-12-04T07:43:09.246Z,574.00
2023-12-04T07:44:09.352Z,576.00
2023-12-04T07:45:09.254Z,574.00
2023-12-04T07:46:09.297Z,575.00
2023-12-04T07:47:09.203Z,572.00
2023-12-04T07:48:09.229Z,572.00
2023-12-04T07:49:09.527Z,570.00
2023-12-04T07:50:09.411Z,573.00
2023-12-04T07:51:09.182Z,574.00
2023-12-04T07:52:10.245Z,576.00
2023-12-04T07:53:09.181Z,576.00
2023-12-04T07:54:09.403Z,574.00
2023-12-04T07:55:09.152Z,574.00
2023-12-04T07:56:09.147Z,573.00
2023-12-04T07:57:09.137Z,580.00
2023-12-04T07:58:09.176Z,582.00
2023-12-04T07:59:09.074Z,583.00
2023-12-04T08:00:09.104Z,585.00
2023-12-04T08:01:09.164Z,584.00
2023-12-04T08:02:09.063Z,585.00
2023-12-04T08:03:09.138Z,586.00
2023-12-04T08:04:09.556Z,591.00
2023-12-04T08:05:10.089Z,595.00
2023-12-04T08:06:09.106Z,597.00
2023-12-04T08:07:09.861Z,597.00
2023-12-04T08:08:09.036Z,598.00
2023-12-04T08:09:09.491Z,595.00
2023-12-04T08:10:09.009Z,595.00
2023-12-04T08:11:09.011Z,594.00
2023-12-04T08:12:09.007Z,595.00
2023-12-04T08:13:09.006Z,594.00
2023-12-04T08:14:08.956Z,594.00
2023-12-04T08:15:09.449Z,596.00
2023-12-04T08:16:08.976Z,595.00
2023-12-04T08:17:09.391Z,598.00
2023-12-04T08:18:08.979Z,602.00
2023-12-04T08:19:09.972Z,606.00
2023-12-04T08:20:09.637Z,605.00
2023-12-04T08:21:08.950Z,604.00
2023-12-04T08:22:08.897Z,601.00
2023-12-04T08:23:10.062Z,601.00
2023-12-04T08:24:08.842Z,602.00
2023-12-04T08:25:09.288Z,602.00
2023-12-04T08:26:08.850Z,603.00
2023-12-04T08:27:09.589Z,605.00
2023-12-04T08:28:09.177Z,617.00
2023-12-04T08:29:08.872Z,609.00
2023-12-04T08:30:08.820Z,608.00
2023-12-04T08:31:08.854Z,607.00
2023-12-04T08:32:12.230Z,610.00
2023-12-04T08:33:08.867Z,607.00
2023-12-04T08:34:08.790Z,614.00
2023-12-04T08:35:08.894Z,646.00
2023-12-04T08:36:09.898Z,659.00
2023-12-04T08:37:08.817Z,665.00
2023-12-04T08:38:08.891Z,676.00
2023-12-04T08:39:08.718Z,697.00
2023-12-04T08:40:08.903Z,701.00
2023-12-04T08:41:08.738Z,711.00
2023-12-04T08:42:12.397Z,714.00
2023-12-04T08:43:08.755Z,718.00
2023-12-04T08:44:08.730Z,729.00
2023-12-04T08:45:08.994Z,768.00
2023-12-04T08:46:08.812Z,799.00
2023-12-04T08:47:08.661Z,863.00
2023-12-04T08:48:08.716Z,892.00
2023-12-04T08:49:08.736Z,902.00
2023-12-04T08:50:09.336Z,909.00
2023-12-04T08:51:08.647Z,916.00
2023-12-04T08:52:08.736Z,980.00
2023-12-04T08:53:08.612Z,990.00
2023-12-04T08:55:07.993Z,1009.00
2023-12-04T08:56:11.256Z,998.00
2023-12-04T08:57:08.591Z,997.00
2023-12-04T08:58:12.207Z,992.00
2023-12-04T08:59:08.583Z,991.00
2023-12-04T09:00:08.592Z,991.00
2023-12-04T09:01:08.589Z,995.00
2023-12-04T09:02:09.942Z,992.00
2023-12-04T09:03:10.834Z,988.00
2023-12-04T09:04:08.616Z,985.00
2023-12-04T09:05:08.601Z,987.00
2023-12-04T09:06:08.669Z,993.00
2023-12-04T09:09:11.045Z,990.00
2023-12-04T09:10:13.939Z,988.00
2023-12-04T09:11:18.625Z,988.00
2023-12-04T09:12:08.435Z,987.00
2023-12-04T09:13:08.444Z,986.00
2023-12-04T09:14:08.440Z,982.00
2023-12-04T09:15:09.652Z,980.00
2023-12-04T09:16:08.986Z,979.00
2023-12-04T09:17:08.390Z,978.00
2023-12-04T09:18:08.511Z,978.00
2023-12-04T09:19:09.455Z,975.00
2023-12-04T09:20:08.472Z,978.00
2023-12-04T09:21:08.417Z,974.00
2023-12-04T09:22:13.020Z,975.00
2023-12-04T09:23:09.513Z,977.00
2023-12-04T09:24:08.391Z,981.00
2023-12-04T09:25:08.322Z,977.00
2023-12-04T09:26:08.296Z,979.00
2023-12-04T09:27:08.372Z,978.00
2023-12-04T09:28:08.278Z,980.00
2023-12-04T09:29:08.310Z,981.00
2023-12-04T09:30:08.315Z,981.00
2023-12-04T09:31:08.271Z,981.00
2023-12-04T09:32:08.267Z,978.00
2023-12-04T09:33:08.324Z,979.00
2023-12-04T09:34:08.231Z,980.00
2023-12-04T09:35:08.218Z,980.00
2023-12-04T09:36:08.251Z,980.00
2023-12-04T09:37:11.292Z,976.00
2023-12-04T09:38:08.192Z,974.00
2023-12-04T09:39:08.279Z,972.00
2023-12-04T09:40:08.266Z,970.00
2023-12-04T09:41:08.171Z,969.00
2023-12-04T09:42:08.478Z,972.00
2023-12-04T09:43:08.146Z,966.00
2023-12-04T09:44:08.150Z,964.00
2023-12-04T09:45:08.160Z,967.00
2023-12-04T09:46:08.116Z,970.00
2023-12-04T09:47:08.166Z,969.00
2023-12-04T09:48:08.303Z,990.00
2023-12-04T09:49:08.593Z,1051.00
2023-12-04T09:50:08.241Z,1098.00
2023-12-04T09:51:08.154Z,1169.00
2023-12-04T09:52:08.058Z,1247.00
2023-12-04T09:53:08.053Z,1269.00
2023-12-04T09:54:08.425Z,1289.00
2023-12-04T09:55:08.056Z,1350.00
2023-12-04T09:56:08.904Z,1377.00
2023-12-04T09:57:08.065Z,1392.00
2023-12-04T09:58:08.046Z,1440.00
2023-12-04T09:59:08.036Z,1472.00
2023-12-04T10:00:08.117Z,1519.00
2023-12-04T10:01:08.063Z,1585.00
2023-12-04T10:02:08.149Z,1594.00
2023-12-04T10:03:08.039Z,1614.00
2023-12-04T10:04:07.989Z,1643.00
2023-12-04T10:05:08.073Z,1676.00
2023-12-04T10:06:08.445Z,1697.00
2023-12-04T10:07:07.941Z,1746.00
2023-12-04T10:08:07.948Z,1800.00
2023-12-04T10:09:07.986Z,1831.00
2023-12-04T10:10:07.943Z,1850.00
2023-12-04T10:11:07.931Z,1865.00
2023-12-04T10:12:07.951Z,1889.00
2023-12-04T10:13:07.990Z,1910.00
2023-12-04T10:14:07.883Z,1939.00
2023-12-04T10:15:07.910Z,1969.00
2023-12-04T10:16:08.059Z,1989.00
2023-12-04T10:17:07.900Z,2012.00
2023-12-04T10:18:07.998Z,2075.00
2023-12-04T10:19:07.946Z,2093.00
2023-12-04T10:20:07.810Z,2154.00
2023-12-04T10:21:08.576Z,2222.00
2023-12-04T10:22:07.793Z,2221.00
2023-12-04T10:23:07.784Z,2231.00
2023-12-04T10:24:07.790Z,2248.00
2023-12-04T10:25:07.766Z,2328.00
2023-12-04T10:26:07.910Z,2327.00
2023-12-04T10:27:07.757Z,2340.00
2023-12-04T10:28:07.740Z,2362.00
2023-12-04T10:29:07.723Z,2334.00
2023-12-04T10:30:07.742Z,1356.00
2023-12-04T10:31:23.501Z,1355.00
2023-12-04T10:32:11.193Z,1337.00
2023-12-04T10:33:07.838Z,1439.00
2023-12-04T10:34:08.023Z,1613.00
2023-12-04T10:35:07.666Z,1688.00
2023-12-04T10:36:07.681Z,1672.00
2023-12-04T10:37:07.917Z,1754.00
2023-12-04T10:38:10.875Z,1842.00
2023-12-04T10:39:07.680Z,1883.00
2023-12-04T10:40:07.633Z,1905.00
2023-12-04T10:41:15.049Z,1939.00
2023-12-04T10:42:07.968Z,1996.00
2023-12-04T10:43:07.603Z,2011.00
2023-12-04T10:45:06.635Z,2024.00
2023-12-04T10:46:07.582Z,2037.00
2023-12-04T10:47:08.422Z,2059.00
2023-12-04T10:48:07.709Z,2088.00
2023-12-04T10:49:07.607Z,2083.00
2023-12-04T10:50:07.568Z,2087.00
2023-12-04T10:51:07.932Z,2113.00
2023-12-04T10:52:07.524Z,2138.00
2023-12-04T10:53:07.513Z,2159.00
2023-12-04T10:54:07.634Z,2151.00
2023-12-04T10:55:07.782Z,2213.00
2023-12-04T10:56:07.922Z,2222.00
2023-12-04T10:57:07.490Z,2232.00
2023-12-04T10:58:07.468Z,2253.00
2023-12-04T10:59:07.458Z,2266.00
2023-12-04T11:00:07.725Z,2266.00
2023-12-04T11:01:08.000Z,2279.00
2023-12-04T11:02:07.508Z,2291.00
2023-12-04T11:03:08.038Z,2295.00
2023-12-04T11:04:07.585Z,2373.00
2023-12-04T11:05:07.500Z,2384.00
2023-12-04T11:06:07.497Z,2420.00
2023-12-04T11:07:07.461Z,2426.00
2023-12-04T11:08:15.488Z,2428.00
2023-12-04T11:09:07.474Z,2440.00
2023-12-04T11:10:07.479Z,2463.00
2023-12-04T11:11:10.735Z,2478.00
2023-12-04T11:12:08.068Z,2494.00
2023-12-04T11:13:09.811Z,2509.00
2023-12-04T11:14:07.464Z,2532.00
2023-12-04T11:15:07.484Z,2557.00
2023-12-04T11:16:07.481Z,2565.00
2023-12-04T11:17:07.343Z,2587.00
2023-12-04T11:18:07.515Z,2605.00
2023-12-04T11:19:08.358Z,2615.00
2023-12-04T11:20:07.301Z,2626.00
2023-12-04T11:21:07.351Z,2649.00
2023-12-04T11:22:07.281Z,2664.00
2023-12-04T11:23:07.481Z,2643.00
2023-12-04T11:24:07.331Z,2695.00
2023-12-04T11:25:07.435Z,2713.00
2023-12-04T11:26:08.548Z,2721.00
2023-12-04T11:27:07.522Z,2732.00
2023-12-04T11:28:07.465Z,2491.00
2023-12-04T11:29:07.218Z,1926.00
2023-12-04T11:30:07.569Z,2191.00
2023-12-04T11:31:07.205Z,2506.00
2023-12-04T11:32:07.199Z,2441.00
2023-12-04T11:33:07.591Z,2412.00
2023-12-04T11:34:07.505Z,2304.00
2023-12-04T11:35:07.448Z,2234.00
2023-12-04T11:36:08.691Z,2304.00
2023-12-04T11:37:07.113Z,2308.00
2023-12-04T11:38:07.157Z,2214.00
2023-12-04T11:39:07.169Z,2184.00
2023-12-04T11:40:07.446Z,2188.00
2023-12-04T11:41:07.470Z,2104.00
2023-12-04T11:42:10.342Z,2094.00
2023-12-04T11:43:07.098Z,2160.00
2023-12-04T11:44:07.462Z,2114.00
2023-12-04T11:45:07.107Z,2172.00
2023-12-04T11:46:07.065Z,2213.00
2023-12-04T11:47:07.295Z,2191.00
2023-12-04T11:48:07.154Z,2191.00
2023-12-04T11:49:07.562Z,2183.00
2023-12-04T11:50:07.031Z,2152.00
2023-12-04T11:51:07.044Z,2150.00
2023-12-04T11:52:07.037Z,2199.00
2023-12-04T11:53:07.965Z,2270.00
2023-12-04T11:54:07.501Z,2203.00
2023-12-04T11:55:07.992Z,2191.00
2023-12-04T11:56:07.023Z,2198.00
2023-12-04T11:57:06.993Z,2211.00
2023-12-04T11:58:06.963Z,2186.00
2023-12-04T11:59:07.390Z,2209.00
2023-12-04T12:00:06.964Z,2149.00
2023-12-04T12:01:06.981Z,2156.00
2023-12-04T12:02:08.046Z,2153.00
2023-12-04T12:03:17.475Z,2135.00
2023-12-04T12:04:09.276Z,2107.00
2023-12-04T12:05:07.090Z,2107.00
2023-12-04T12:06:08.188Z,2137.00
2023-12-04T12:07:07.078Z,2046.00
2023-12-04T12:08:06.968Z,2072.00
2023-12-04T12:09:06.939Z,2086.00
2023-12-04T12:10:06.990Z,2100.00
2023-12-04T12:11:06.912Z,2086.00
2023-12-04T12:12:06.951Z,2074.00
2023-12-04T12:13:06.882Z,2086.00
2023-12-04T12:14:06.911Z,2000.00
2023-12-04T12:15:07.021Z,1885.00
2023-12-04T12:16:06.876Z,1516.00
2023-12-04T12:17:06.862Z,1638.00
2023-12-04T12:18:07.016Z,1909.00
2023-12-04T12:19:06.915Z,1927.00
2023-12-04T12:20:06.992Z,1912.00
2023-12-04T12:21:06.853Z,2018.00
2023-12-04T12:22:06.806Z,2055.00
2023-12-04T12:23:06.793Z,2060.00
2023-12-04T12:24:07.085Z,2071.00
2023-12-04T12:25:06.988Z,2105.00
2023-12-04T12:26:06.765Z,2131.00
2023-12-04T12:27:08.070Z,2165.00
2023-12-04T12:28:07.729Z,2224.00
2023-12-04T12:29:06.757Z,2322.00
2023-12-04T12:30:06.767Z,2351.00
2023-12-04T12:31:06.734Z,2328.00
2023-12-04T12:32:06.719Z,2346.00
2023-12-04T12:33:06.791Z,2350.00
2023-12-04T12:34:06.814Z,2348.00
2023-12-04T12:35:06.724Z,2370.00
2023-12-04T12:36:07.023Z,2418.00
2023-12-04T12:37:06.679Z,2436.00
2023-12-04T12:38:06.657Z,2448.00
2023-12-04T12:39:06.722Z,2488.00
2023-12-04T12:40:06.690Z,2496.00
2023-12-04T12:41:06.630Z,2507.00
2023-12-04T12:42:06.675Z,2501.00
2023-12-04T12:43:08.480Z,2538.00
2023-12-04T12:44:06.584Z,2545.00
2023-12-04T12:45:06.590Z,2561.00
2023-12-04T12:46:07.039Z,2574.00
2023-12-04T12:47:06.554Z,2573.00
2023-12-04T12:48:06.742Z,2578.00
2023-12-04T12:49:06.713Z,2579.00
2023-12-04T12:50:06.665Z,1883.00
2023-12-04T12:51:07.072Z,1727.00
2023-12-04T12:52:06.598Z,1661.00
2023-12-04T12:53:06.577Z,861.00
2023-12-04T12:54:06.636Z,775.00
2023-12-04T12:55:07.058Z,839.00
2023-12-04T12:56:07.020Z,874.00
2023-12-04T12:57:06.653Z,1004.00
2023-12-04T12:58:06.582Z,1027.00
2023-12-04T12:59:06.593Z,1142.00
2023-12-04T13:00:07.102Z,1226.00
2023-12-04T13:01:06.771Z,1353.00
2023-12-04T13:02:07.122Z,1379.00
2023-12-04T13:03:08.180Z,1389.00
2023-12-04T13:04:06.761Z,1392.00
2023-12-04T13:05:06.889Z,1395.00
2023-12-04T13:06:05.718Z,1401.00
2023-12-04T13:07:07.583Z,1417.00
2023-12-04T13:08:06.670Z,1432.00
2023-12-04T13:09:06.583Z,1442.00
2023-12-04T13:10:06.719Z,1452.00
2023-12-04T13:11:06.978Z,1120.00
2023-12-04T13:12:06.614Z,1098.00
2023-12-04T13:13:06.654Z,976.00
2023-12-04T13:14:07.035Z,938.00
2023-12-04T13:15:06.557Z,946.00
2023-12-04T13:16:06.581Z,1077.00
2023-12-04T13:17:06.519Z,1194.00